KDAY/DAY METAR and TAF weather

Enter ICAO airport designator
Station Type Date Time Source
KDAY METAR 2018/07/20 14:03 UTC NOAA

KDAY 201403Z 15010KT 7SM BKN007 OVC075 20/19 A2992 RMK AO2 T02000194


Station Type Date Time Source
KDAY Decoded METAR 2018/07/20 14:03 UTC NOAA

COX DAYTON INTERNATIONAL, OH, United States (KDAY) 39-54N 084-13W 305M
Jul 20, 2018 - 10:03 AM EDT / 2018.07.20 1403 UTC
Wind: from the SSE (150 degrees) at 12 MPH (10 KT):0
Visibility: 7 mile(s):0
Sky conditions: overcast
Temperature: 68.0 F (20.0 C)
Dew Point: 66.9 F (19.4 C)
Relative Humidity: 96%
Pressure (altimeter): 29.92 in. Hg (1013 hPa)
ob: KDAY 201403Z 15010KT 7SM BKN007 OVC075 20/19 A2992 RMK AO2 T02000194
cycle: 14

Station Type Date Time Source
KDAY TAF 2018/07/20 12:22 UTC NOAA

TAF KDAY 201120Z 2012/2112 17008KT P6SM -SHRA VCTS OVC050CB
TEMPO 2012/2013 4SM -TSRA OVC035CB
FM201400 18012KT P6SM VCSH BKN025
FM201700 18014G22KT P6SM VCSH BKN035
FM201900 19012G20KT P6SM -SHRA VCTS BKN040CB
FM210100 17010KT P6SM VCSH FEW025 OVC040
FM210600 18010KT P6SM VCSH BKN025


Example: see airport list